createdAt,value
2019-05-17T00:00:18.225Z,3.17
2019-05-17T00:01:52.540Z,2.52
2019-05-17T00:03:27.318Z,2.37
2019-05-17T00:05:02.109Z,2.72
2019-05-17T00:06:37.006Z,2.90
2019-05-17T00:08:11.555Z,2.70
2019-05-17T00:09:47.851Z,2.30
2019-05-17T00:11:22.509Z,2.30
2019-05-17T00:12:57.277Z,2.77
2019-05-17T00:14:31.600Z,2.02
2019-05-17T00:16:07.212Z,2.22
2019-05-17T00:17:42.790Z,2.90
2019-05-17T00:19:17.548Z,2.80
2019-05-17T00:20:51.817Z,3.55
2019-05-17T00:22:27.022Z,3.17
2019-05-17T00:24:01.814Z,3.10
2019-05-17T00:25:37.018Z,3.25
2019-05-17T00:27:12.012Z,3.83
2019-05-17T00:28:47.009Z,3.12
2019-05-17T00:30:21.816Z,3.45
2019-05-17T00:31:56.893Z,3.37
2019-05-17T00:33:31.212Z,2.83
2019-05-17T00:35:07.988Z,3.27
2019-05-17T00:36:42.440Z,5.47
2019-05-17T00:38:17.276Z,3.98
2019-05-17T00:39:51.489Z,3.85
2019-05-17T00:41:27.110Z,3.50
2019-05-17T00:43:01.640Z,3.55
2019-05-17T00:44:36.735Z,3.58
2019-05-17T00:46:11.221Z,3.95
2019-05-17T00:47:46.812Z,3.87
2019-05-17T00:49:21.947Z,4.20
2019-05-17T00:51:02.230Z,4.37
2019-05-17T00:52:32.665Z,4.40
2019-05-17T00:54:07.489Z,4.33
2019-05-17T00:55:41.953Z,4.05
2019-05-17T00:57:16.776Z,4.50
2019-05-17T00:58:50.934Z,4.37
2019-05-17T01:00:27.836Z,3.58
2019-05-17T01:02:02.087Z,3.83
2019-05-17T01:03:36.965Z,3.60
2019-05-17T01:05:11.412Z,4.05
2019-05-17T01:06:46.837Z,4.05
2019-05-17T01:08:21.481Z,3.00
2019-05-17T01:09:56.779Z,3.15
2019-05-17T01:11:31.080Z,2.72
2019-05-17T01:13:06.924Z,2.40
2019-05-17T01:14:41.985Z,3.00
2019-05-17T01:16:16.765Z,2.30
2019-05-17T01:17:51.016Z,2.55
2019-05-17T01:19:27.036Z,2.45
2019-05-17T01:21:02.405Z,2.80
2019-05-17T01:22:37.242Z,2.62
2019-05-17T01:24:11.493Z,2.83
2019-05-17T01:25:48.029Z,3.20
2019-05-17T01:27:22.713Z,2.80
2019-05-17T01:28:57.545Z,2.27
2019-05-17T01:30:31.832Z,2.95
2019-05-17T01:32:06.945Z,3.02
2019-05-17T01:33:41.905Z,2.83
2019-05-17T01:35:17.050Z,2.60
2019-05-17T01:36:51.294Z,2.67
2019-05-17T01:38:26.919Z,2.80
2019-05-17T01:40:02.125Z,2.80
2019-05-17T01:41:37.292Z,2.37
2019-05-17T01:43:12.164Z,2.80
2019-05-17T01:44:47.343Z,3.30
2019-05-17T01:46:22.125Z,3.00
2019-05-17T01:47:56.894Z,2.55
2019-05-17T01:49:31.104Z,3.15
2019-05-17T01:51:07.513Z,3.37
2019-05-17T01:52:42.338Z,3.17
2019-05-17T01:54:17.679Z,2.30
2019-05-17T01:55:52.204Z,3.05
2019-05-17T01:57:27.422Z,2.85
2019-05-17T01:59:02.977Z,3.27
2019-05-17T02:00:37.953Z,3.10
2019-05-17T02:02:16.749Z,5.17
2019-05-17T02:03:51.290Z,2.92
2019-05-17T02:05:27.400Z,3.30
2019-05-17T02:07:02.302Z,2.80
2019-05-17T02:08:37.186Z,2.45
2019-05-17T02:10:16.542Z,2.70
2019-05-17T02:11:50.874Z,3.08
2019-05-17T02:13:26.774Z,3.27
2019-05-17T02:15:01.858Z,2.50
2019-05-17T02:16:37.630Z,2.95
2019-05-17T02:18:12.819Z,2.40
2019-05-17T02:19:47.592Z,2.35
2019-05-17T02:21:21.809Z,4.70
2019-05-17T02:22:57.361Z,6.08
2019-05-17T02:24:31.911Z,5.22
2019-05-17T02:26:06.914Z,3.30
2019-05-17T02:27:44.633Z,3.83
2019-05-17T02:29:18.476Z,4.00
2019-05-17T02:30:53.864Z,2.55
2019-05-17T02:32:28.764Z,2.47
2019-05-17T02:34:03.568Z,2.30
2019-05-17T02:35:38.332Z,2.67
2019-05-17T02:37:13.616Z,2.40
2019-05-17T02:38:48.520Z,3.27
2019-05-17T02:40:22.836Z,3.50
2019-05-17T02:41:57.568Z,3.70
2019-05-17T02:43:33.444Z,3.25
2019-05-17T02:45:09.467Z,3.40
2019-05-17T02:46:44.020Z,4.05
2019-05-17T02:48:18.816Z,3.80
2019-05-17T02:49:53.513Z,3.42
2019-05-17T02:51:28.316Z,4.92
2019-05-17T02:53:04.759Z,4.70
2019-05-17T02:54:39.748Z,3.67
2019-05-17T02:56:14.321Z,3.22
2019-05-17T02:57:49.089Z,3.00
2019-05-17T02:59:23.461Z,2.87
2019-05-17T03:00:58.205Z,2.83
2019-05-17T03:02:34.086Z,2.58
2019-05-17T03:04:09.279Z,2.70
2019-05-17T03:05:43.340Z,3.47
2019-05-17T03:07:18.161Z,2.75
2019-05-17T03:08:52.640Z,2.52
2019-05-17T03:10:28.923Z,2.70
2019-05-17T03:12:03.879Z,2.87
2019-05-17T03:13:38.936Z,2.65
2019-05-17T03:15:14.299Z,2.83
2019-05-17T03:16:48.810Z,2.47
2019-05-17T03:18:23.258Z,2.30
2019-05-17T03:19:58.103Z,2.50
2019-05-17T03:21:33.769Z,2.62
2019-05-17T03:23:09.075Z,2.17
2019-05-17T03:24:43.865Z,2.70
2019-05-17T03:26:18.869Z,2.85
2019-05-17T03:27:53.771Z,3.30
2019-05-17T03:29:28.726Z,4.67
2019-05-17T03:31:07.955Z,6.10
2019-05-17T03:32:47.286Z,4.45
2019-05-17T03:34:18.039Z,2.77
2019-05-17T03:35:56.608Z,3.20
2019-05-17T03:37:36.695Z,6.72
2019-05-17T03:39:08.193Z,4.35
2019-05-17T03:41:11.847Z,4.42
2019-05-17T03:42:19.002Z,3.98
2019-05-17T03:43:53.497Z,4.95
2019-05-17T03:45:28.312Z,4.75
2019-05-17T03:47:03.198Z,3.87
2019-05-17T03:48:38.765Z,4.80
2019-05-17T03:50:13.593Z,4.55
2019-05-17T03:51:48.963Z,4.83
2019-05-17T03:53:23.390Z,4.55
2019-05-17T03:54:58.209Z,5.92
2019-05-17T03:56:33.122Z,5.72
2019-05-17T03:58:08.144Z,5.83
2019-05-17T03:59:43.072Z,6.03
2019-05-17T04:01:18.361Z,4.75
2019-05-17T04:02:53.745Z,3.33
2019-05-17T04:04:29.017Z,3.40
2019-05-17T04:06:04.067Z,3.27
2019-05-17T04:07:39.249Z,3.45
2019-05-17T04:09:14.154Z,3.05
2019-05-17T04:10:49.084Z,3.37
2019-05-17T04:12:23.845Z,3.55
2019-05-17T04:13:58.722Z,3.80
2019-05-17T04:15:33.205Z,3.87
2019-05-17T04:17:08.236Z,4.75
2019-05-17T04:18:43.807Z,8.58
2019-05-17T04:20:18.786Z,8.40
2019-05-17T04:21:53.735Z,7.47
2019-05-17T04:23:28.784Z,6.78
2019-05-17T04:25:03.487Z,6.72
2019-05-17T04:26:38.305Z,8.95
2019-05-17T04:28:13.657Z,8.48
2019-05-17T04:29:48.789Z,8.83
2019-05-17T04:31:23.344Z,8.90
2019-05-17T04:32:58.170Z,8.70
2019-05-17T04:34:33.546Z,8.38
2019-05-17T04:36:12.905Z,8.28
2019-05-17T04:37:45.583Z,8.10
2019-05-17T04:39:22.577Z,8.23
2019-05-17T04:40:56.284Z,8.18
2019-05-17T04:42:33.110Z,8.93
2019-05-17T04:44:07.026Z,8.33
2019-05-17T04:45:42.814Z,7.22
2019-05-17T04:47:17.125Z,6.75
2019-05-17T04:48:53.575Z,6.55
2019-05-17T04:50:27.980Z,7.10
2019-05-17T04:52:03.731Z,6.28
2019-05-17T04:53:38.101Z,5.72
2019-05-17T04:55:14.070Z,6.33
2019-05-17T04:56:48.912Z,5.87
2019-05-17T04:58:23.705Z,5.62
2019-05-17T04:59:57.913Z,5.62
2019-05-17T05:01:33.381Z,5.90
2019-05-17T05:03:12.458Z,5.97
2019-05-17T05:04:45.545Z,5.55
2019-05-17T05:06:23.149Z,7.00
2019-05-17T05:07:56.477Z,7.05
2019-05-17T05:09:32.311Z,7.62
2019-05-17T05:11:07.357Z,8.78
2019-05-17T05:12:43.641Z,10.78
2019-05-17T05:14:18.156Z,10.20
2019-05-17T05:15:52.732Z,9.80
2019-05-17T05:17:28.980Z,9.95
2019-05-17T05:19:03.252Z,11.90
2019-05-17T05:20:38.108Z,10.80
2019-05-17T05:22:13.549Z,10.30
2019-05-17T05:23:49.158Z,11.08
2019-05-17T05:25:23.453Z,9.83
2019-05-17T05:26:58.288Z,11.50
2019-05-17T05:28:32.844Z,10.70
2019-05-17T05:30:08.185Z,11.22
2019-05-17T05:31:42.851Z,11.68
2019-05-17T05:33:17.800Z,10.70
2019-05-17T05:34:52.313Z,12.30
2019-05-17T05:36:27.142Z,11.20
2019-05-17T05:38:02.204Z,11.90
2019-05-17T05:39:37.469Z,13.53
2019-05-17T05:41:12.280Z,14.18
2019-05-17T05:42:47.324Z,13.85
2019-05-17T05:44:21.593Z,13.88
2019-05-17T05:45:56.359Z,13.88
2019-05-17T05:47:32.380Z,14.13
2019-05-17T05:49:07.526Z,14.55
2019-05-17T05:50:43.121Z,14.75
2019-05-17T05:52:18.436Z,15.72
2019-05-17T14:31:18.907Z,6.80
2019-05-17T14:32:54.761Z,8.85
2019-05-17T14:34:30.315Z,7.72
2019-05-17T14:36:05.113Z,7.60
2019-05-17T14:37:39.318Z,7.80
2019-05-17T14:39:14.074Z,7.00
2019-05-17T14:41:05.682Z,7.00
2019-05-17T14:42:24.924Z,7.78
2019-05-17T14:43:59.199Z,7.40
2019-05-17T14:45:33.962Z,7.95
2019-05-17T14:47:08.482Z,7.50
2019-05-17T14:48:43.297Z,6.65
2019-05-17T14:50:19.643Z,7.75
2019-05-17T14:51:54.408Z,7.03
2019-05-17T14:53:28.909Z,7.60
2019-05-17T14:55:03.718Z,7.00
2019-05-17T14:56:39.577Z,8.00
2019-05-17T14:58:14.350Z,8.75
2019-05-17T14:59:48.811Z,8.40
2019-05-17T15:01:23.379Z,7.65
2019-05-17T15:02:57.584Z,7.92
2019-05-17T15:04:32.411Z,7.78
2019-05-17T15:06:07.161Z,7.83
2019-05-17T15:07:41.945Z,8.73
2019-05-17T15:09:16.211Z,9.60
2019-05-17T15:10:50.993Z,10.18
2019-05-17T15:12:28.697Z,9.50
2019-05-17T15:14:01.901Z,8.10
2019-05-17T15:15:36.123Z,7.65
2019-05-17T15:17:12.856Z,8.38
2019-05-17T15:18:47.184Z,8.78
2019-05-17T15:20:21.989Z,9.33
2019-05-17T15:21:56.197Z,8.75
2019-05-17T15:23:31.037Z,8.43
2019-05-17T15:25:05.966Z,8.50
2019-05-17T15:26:40.866Z,8.38
2019-05-17T15:28:15.147Z,8.30
2019-05-17T15:29:49.991Z,8.88
2019-05-17T15:31:24.658Z,8.38
2019-05-17T15:32:59.529Z,8.50
2019-05-17T15:34:33.774Z,8.63
2019-05-17T15:36:09.051Z,7.95
2019-05-17T15:37:43.449Z,7.40
2019-05-17T15:39:18.216Z,8.43
2019-05-17T15:40:53.900Z,8.85
2019-05-17T15:42:43.233Z,7.97
2019-05-17T15:44:04.765Z,7.55
2019-05-17T15:45:39.521Z,8.70
2019-05-17T15:47:13.735Z,7.70
2019-05-17T15:48:48.608Z,7.92
2019-05-17T15:50:23.345Z,9.23
2019-05-17T15:51:58.496Z,23.05
2019-05-17T15:53:32.807Z,11.95
2019-05-17T15:55:08.746Z,9.18
2019-05-17T15:56:43.257Z,8.70
2019-05-17T15:58:18.030Z,8.88
2019-05-17T15:59:52.316Z,13.55
2019-05-17T16:01:27.166Z,10.85
2019-05-17T16:03:02.041Z,10.25
2019-05-17T16:04:36.809Z,9.30
2019-05-17T16:06:11.330Z,9.68
2019-05-17T16:07:46.452Z,8.98
2019-05-17T16:09:21.334Z,8.58
2019-05-17T16:10:56.148Z,10.30
2019-05-17T16:12:30.464Z,9.18
2019-05-17T16:14:05.223Z,9.30
2019-05-17T16:15:39.803Z,9.30
2019-05-17T16:17:14.626Z,9.78
2019-05-17T16:18:48.844Z,9.23
2019-05-17T16:20:23.632Z,8.35
2019-05-17T16:21:58.281Z,8.58
2019-05-17T16:23:33.305Z,7.80
2019-05-17T16:25:07.916Z,8.83
2019-05-17T16:26:42.724Z,8.80
2019-05-17T16:28:17.443Z,10.58
2019-05-17T16:29:52.288Z,11.70
2019-05-17T16:31:26.516Z,8.98
2019-05-17T16:33:01.364Z,10.15
2019-05-17T16:34:36.063Z,11.85
2019-05-17T16:36:10.864Z,11.57
2019-05-17T16:37:45.148Z,13.25
2019-05-17T16:39:20.115Z,10.93
2019-05-17T16:40:54.819Z,11.68
2019-05-17T16:42:29.606Z,12.82
2019-05-17T16:44:04.206Z,12.73
2019-05-17T16:45:38.989Z,11.90
2019-05-17T16:47:13.714Z,9.98
2019-05-17T16:48:49.881Z,11.85
2019-05-17T16:50:24.116Z,13.62
2019-05-17T16:51:59.071Z,13.32
2019-05-17T16:53:33.540Z,13.85
2019-05-17T16:55:09.199Z,14.25
2019-05-17T16:56:45.129Z,14.23
2019-05-17T16:58:19.916Z,13.13
2019-05-17T16:59:54.302Z,13.75
2019-05-17T17:01:29.081Z,14.13
2019-05-17T17:03:04.683Z,15.08
2019-05-17T17:04:39.529Z,13.13
2019-05-17T17:06:14.046Z,14.10
2019-05-17T17:07:49.938Z,14.58
2019-05-17T17:09:24.274Z,14.47
2019-05-17T17:10:58.820Z,15.20
2019-05-17T17:12:33.533Z,17.48
2019-05-17T17:14:08.339Z,17.73
2019-05-17T17:15:42.644Z,17.07
2019-05-17T17:17:17.445Z,16.77
2019-05-17T17:18:52.101Z,16.67
2019-05-17T17:20:26.717Z,14.47
2019-05-17T17:22:00.936Z,16.70
2019-05-17T17:23:35.731Z,16.97
2019-05-17T17:25:10.686Z,16.07
2019-05-17T17:26:45.546Z,18.57
2019-05-17T17:28:24.977Z,17.80
2019-05-17T17:29:57.430Z,17.62
2019-05-17T17:31:32.414Z,17.20
2019-05-17T17:33:07.191Z,18.67
2019-05-17T17:34:41.409Z,18.95
2019-05-17T17:36:19.330Z,21.10
2019-05-17T17:37:52.441Z,32.23
2019-05-17T17:39:27.214Z,48.60
2019-05-17T17:41:05.745Z,59.00
2019-05-17T17:42:40.526Z,36.88
2019-05-17T17:44:16.653Z,27.42
2019-05-17T17:45:51.206Z,26.25
2019-05-17T17:47:25.520Z,24.25
2019-05-17T17:49:00.358Z,26.70
2019-05-17T17:50:34.816Z,24.32
2019-05-17T17:52:11.432Z,22.47
2019-05-17T17:53:45.790Z,17.50
2019-05-17T17:55:21.817Z,16.02
2019-05-17T17:56:56.788Z,17.17
2019-05-17T17:58:31.661Z,15.03
2019-05-17T18:00:07.960Z,15.88
2019-05-17T18:01:42.749Z,16.70
2019-05-17T18:03:17.299Z,17.32
2019-05-17T18:04:52.086Z,16.75
2019-05-17T18:06:26.438Z,16.87
2019-05-17T18:08:01.219Z,18.23
2019-05-17T18:09:35.661Z,19.40
2019-05-17T18:11:10.528Z,22.13
2019-05-17T18:12:44.780Z,30.45
2019-05-17T18:14:22.237Z,19.30
2019-05-17T18:15:56.797Z,24.85
2019-05-17T18:17:39.127Z,24.12
2019-05-17T18:19:09.620Z,21.15
2019-05-17T18:20:44.541Z,20.20
2019-05-17T18:22:21.150Z,21.57
2019-05-17T18:23:57.467Z,22.32
2019-05-17T18:25:31.798Z,22.20
2019-05-17T18:27:06.710Z,20.90
2019-05-17T18:28:41.373Z,21.55
2019-05-17T18:30:16.153Z,23.55
2019-05-17T18:31:50.494Z,24.92
2019-05-17T18:33:25.305Z,22.00
2019-05-17T18:35:00.413Z,20.43
2019-05-17T18:36:38.254Z,25.27
2019-05-17T18:38:11.085Z,24.35
2019-05-17T18:39:45.893Z,18.95
2019-05-17T18:41:21.756Z,20.70
2019-05-17T18:42:56.617Z,20.97
2019-05-17T18:44:30.960Z,21.68
2019-05-17T18:46:05.813Z,23.02
2019-05-17T18:47:40.426Z,23.25
2019-05-17T18:49:15.204Z,23.92
2019-05-17T18:50:49.477Z,24.25
2019-05-17T18:52:24.347Z,24.72
2019-05-17T18:53:59.099Z,23.85
2019-05-17T18:55:35.651Z,21.57
2019-05-17T18:57:09.925Z,22.98
2019-05-17T18:58:44.711Z,19.92
2019-05-17T19:00:19.853Z,19.12
2019-05-17T19:01:56.161Z,23.38
2019-05-17T19:03:30.444Z,21.50
2019-05-17T19:05:07.988Z,20.45
2019-05-17T19:06:42.416Z,18.52
2019-05-17T19:08:17.189Z,17.37
2019-05-17T19:09:51.410Z,17.85
2019-05-17T19:11:26.353Z,19.25
2019-05-17T19:13:02.302Z,18.87
2019-05-17T19:14:43.131Z,18.32
2019-05-17T19:16:13.025Z,19.57
2019-05-17T19:17:47.797Z,22.15
2019-05-17T19:19:22.765Z,21.73
2019-05-17T19:20:57.614Z,20.92
2019-05-17T19:22:31.836Z,22.05
2019-05-17T19:24:08.115Z,21.23
2019-05-17T19:25:42.738Z,21.75
2019-05-17T19:27:17.502Z,19.17
2019-05-17T19:28:51.749Z,18.23
2019-05-17T19:30:28.125Z,18.73
2019-05-17T19:32:02.750Z,17.90
2019-05-17T19:33:37.532Z,22.65
2019-05-17T19:35:13.062Z,21.15
2019-05-17T19:36:49.226Z,22.58
2019-05-17T19:38:23.553Z,22.87
2019-05-17T19:39:58.326Z,22.25
2019-05-17T19:41:32.555Z,22.30
2019-05-17T19:43:07.457Z,22.37
2019-05-17T19:44:41.940Z,23.07
2019-05-17T19:46:16.699Z,22.27
2019-05-17T19:47:50.925Z,22.35
2019-05-17T19:49:27.059Z,21.70
2019-05-17T19:51:01.596Z,21.57
2019-05-17T19:52:36.361Z,18.80
2019-05-17T19:54:10.629Z,20.62
2019-05-17T19:55:45.462Z,18.23
2019-05-17T19:57:20.017Z,18.98
2019-05-17T19:58:54.792Z,19.45
2019-05-17T20:00:29.016Z,20.75
2019-05-17T20:02:06.422Z,20.97
2019-05-17T20:03:40.222Z,20.43
2019-05-17T20:05:16.471Z,21.00
2019-05-17T20:06:50.680Z,20.57
2019-05-17T20:08:25.521Z,22.20
2019-05-17T20:10:00.332Z,20.40
2019-05-17T20:11:35.146Z,18.65
2019-05-17T20:13:09.417Z,19.67
2019-05-17T20:14:44.709Z,20.35
2019-05-17T20:16:20.853Z,21.00
2019-05-17T20:17:55.697Z,19.23
2019-05-17T20:19:29.953Z,20.05
2019-05-17T20:21:04.801Z,20.27
2019-05-17T20:22:44.542Z,20.30
2019-05-17T20:24:19.287Z,20.72
2019-05-17T20:25:53.561Z,20.97
2019-05-17T20:27:29.429Z,21.77
2019-05-17T20:29:03.754Z,21.45
2019-05-17T20:30:38.638Z,21.25
2019-05-17T20:32:12.885Z,21.40
2019-05-17T20:33:47.657Z,21.35
2019-05-17T20:35:22.319Z,20.43
2019-05-17T20:36:57.092Z,21.12
2019-05-17T20:38:31.348Z,21.30
2019-05-17T20:40:08.495Z,19.45
2019-05-17T20:41:42.889Z,20.97
2019-05-17T20:43:17.945Z,20.95
2019-05-17T20:44:55.144Z,19.90
2019-05-17T20:46:30.698Z,20.80
2019-05-17T20:48:05.047Z,20.62
2019-05-17T20:49:39.921Z,21.42
2019-05-17T20:51:14.141Z,20.85
2019-05-17T20:52:48.981Z,20.40
2019-05-17T20:54:23.363Z,19.95
2019-05-17T20:55:58.176Z,20.05
2019-05-17T20:57:32.393Z,20.90
2019-05-17T20:59:07.164Z,19.92
2019-05-17T21:00:41.840Z,20.17
2019-05-17T21:02:17.679Z,20.90
2019-05-17T21:03:51.878Z,19.45
2019-05-17T21:05:26.692Z,19.10
2019-05-17T21:07:01.435Z,19.73
2019-05-17T21:08:45.505Z,20.00
2019-05-17T21:10:12.676Z,19.12
2019-05-17T21:11:47.489Z,20.23
2019-05-17T21:13:23.955Z,20.57
2019-05-17T21:14:58.745Z,21.87
2019-05-17T21:16:32.977Z,21.82
2019-05-17T21:18:07.816Z,22.00
2019-05-17T21:19:42.474Z,24.18
2019-05-17T21:21:17.253Z,21.97
2019-05-17T21:22:51.484Z,23.25
2019-05-17T21:24:26.664Z,21.82
2019-05-17T21:26:01.066Z,22.25
2019-05-17T21:27:35.849Z,22.62
2019-05-17T21:29:10.076Z,24.07
2019-05-17T21:30:44.925Z,22.02
2019-05-17T21:32:19.934Z,22.93
2019-05-17T21:33:54.744Z,23.00
2019-05-17T21:35:29.017Z,22.35
2019-05-17T21:37:03.792Z,21.62
2019-05-17T21:38:38.397Z,22.13
2019-05-17T21:40:14.133Z,23.22
2019-05-17T21:41:48.389Z,23.18
2019-05-17T21:43:23.173Z,23.62
2019-05-17T21:44:57.597Z,24.80
2019-05-17T21:46:32.189Z,24.25
2019-05-17T21:48:06.816Z,22.95
2019-05-17T21:49:41.596Z,22.73
2019-05-17T21:51:16.376Z,23.12
2019-05-17T21:52:51.195Z,22.85
2019-05-17T21:54:25.427Z,23.52
2019-05-17T21:56:00.211Z,23.70
2019-05-17T21:57:34.846Z,24.25
2019-05-17T21:59:12.623Z,23.15
2019-05-17T22:01:03.470Z,24.47
2019-05-17T22:02:38.453Z,24.00
2019-05-17T22:04:12.755Z,24.95
2019-05-17T22:05:47.578Z,23.85
2019-05-17T22:07:21.863Z,24.95
2019-05-17T22:08:58.467Z,25.12
2019-05-17T22:10:32.702Z,24.00
2019-05-17T22:12:08.608Z,25.15
2019-05-17T22:13:42.920Z,24.37
2019-05-17T22:15:17.917Z,24.90
2019-05-17T22:16:52.115Z,25.92
2019-05-17T22:18:27.614Z,24.45
2019-05-17T22:20:01.840Z,24.85
2019-05-17T22:21:37.158Z,24.57
2019-05-17T22:23:11.421Z,25.15
2019-05-17T22:24:46.184Z,26.12
2019-05-17T22:26:20.398Z,25.45
2019-05-17T22:27:55.713Z,25.15
2019-05-17T22:29:29.985Z,25.57
2019-05-17T22:31:04.747Z,26.20
2019-05-17T22:32:39.040Z,24.65
2019-05-17T22:34:14.616Z,24.70
2019-05-17T22:35:48.876Z,26.80
2019-05-17T22:37:23.632Z,25.30
2019-05-17T22:38:59.083Z,27.10
2019-05-17T22:40:34.136Z,25.82
2019-05-17T22:42:08.405Z,26.07
2019-05-17T22:43:43.179Z,25.70
2019-05-17T22:45:17.389Z,24.82
2019-05-17T22:46:52.477Z,26.05
2019-05-17T22:48:28.163Z,27.87
2019-05-17T22:50:03.496Z,27.40
2019-05-17T22:51:37.712Z,26.55
2019-05-17T22:53:12.793Z,29.30
2019-05-17T22:54:47.008Z,27.32
2019-05-17T22:56:21.548Z,27.85
2019-05-17T22:57:55.804Z,26.00
2019-05-17T22:59:31.066Z,28.40
2019-05-17T23:01:05.279Z,27.65
2019-05-17T23:02:40.044Z,27.42
2019-05-17T23:04:14.309Z,27.07
2019-05-17T23:05:49.947Z,27.10
2019-05-17T23:07:24.148Z,26.05
2019-05-17T23:09:01.419Z,26.70
2019-05-17T23:10:37.146Z,25.25
2019-05-17T23:12:12.520Z,25.60
2019-05-17T23:13:46.740Z,27.30
2019-05-17T23:15:21.585Z,26.48
2019-05-17T23:16:56.040Z,26.65
2019-05-17T23:18:35.298Z,26.20
2019-05-17T23:20:10.297Z,26.20
2019-05-17T23:21:45.460Z,25.72
2019-05-17T23:23:19.721Z,27.10
2019-05-17T23:24:54.889Z,25.70
2019-05-17T23:26:29.111Z,27.20
2019-05-17T23:28:05.386Z,26.48
2019-05-17T23:29:41.207Z,26.12
2019-05-17T23:31:16.539Z,26.12
2019-05-17T23:32:50.857Z,26.80
2019-05-17T23:34:25.623Z,25.75
2019-05-17T23:35:59.837Z,28.20
2019-05-17T23:37:35.322Z,26.50
2019-05-17T23:39:09.579Z,25.10
2019-05-17T23:40:44.367Z,22.87
2019-05-17T23:42:18.600Z,23.95
2019-05-17T23:43:53.938Z,22.87
2019-05-17T23:45:28.237Z,22.93
2019-05-17T23:47:06.972Z,24.25
2019-05-17T23:48:38.994Z,24.07
2019-05-17T23:50:14.417Z,25.48
2019-05-17T23:51:48.713Z,28.20
2019-05-17T23:53:23.976Z,26.77
2019-05-17T23:54:58.184Z,25.82
2019-05-17T23:56:33.499Z,26.65
2019-05-17T23:58:07.712Z,26.93
2019-05-17T23:59:42.469Z,25.82
